Time;durP1;ratioP1;P1;durP2;ratioP2;P2;SDS_P1;SDS_P2;PMS_P1;PMS_P2;Temp;Humidity;BMP_temperature;BMP_pressure;BME280_temperature;BME280_humidity;BME280_pressure;Samples;Min_cycle;Max_cycle;Signal;HPM_P1;HPM_P2
2022/05/02 00:00:10;;;;;;;23.70;12.15;;;6.30;99.90;;;;;;4975875;28;20121;-82
2022/05/02 00:02:36;;;;;;;21.08;12.75;;;6.30;99.90;;;;;;4985729;28;20031;-84
2022/05/02 00:05:03;;;;;;;20.45;10.88;;;6.30;99.90;;;;;;4986935;28;20026;-84
2022/05/02 00:07:29;;;;;;;22.38;12.38;;;6.30;99.90;;;;;;4997870;28;20027;-78
2022/05/02 00:09:55;;;;;;;24.17;12.95;;;6.30;99.90;;;;;;4996734;28;20054;-80
2022/05/02 00:12:21;;;;;;;20.83;12.07;;;6.30;99.90;;;;;;4983016;28;20038;-80
2022/05/02 00:14:46;;;;;;;25.08;12.82;;;6.30;99.90;;;;;;4981391;28;20027;-82
2022/05/02 00:17:12;;;;;;;30.25;13.93;;;6.30;99.90;;;;;;4978540;28;20065;-80
2022/05/02 00:19:38;;;;;;;23.92;12.15;;;6.30;99.90;;;;;;4982383;28;20038;-81
2022/05/02 00:22:04;;;;;;;24.52;12.40;;;6.20;99.90;;;;;;4975593;28;20027;-80
2022/05/02 00:24:30;;;;;;;21.52;12.15;;;6.10;99.90;;;;;;4973594;28;20516;-80
2022/05/02 00:26:56;;;;;;;26.48;12.13;;;6.00;99.90;;;;;;4970302;28;20033;-80
2022/05/02 00:29:22;;;;;;;25.50;11.75;;;5.90;99.90;;;;;;4976469;28;20023;-81
2022/05/02 00:31:48;;;;;;;21.13;11.10;;;5.90;99.90;;;;;;4984992;28;20066;-80
2022/05/02 00:34:14;;;;;;;26.88;13.02;;;5.80;99.90;;;;;;4970795;28;20077;-81
2022/05/02 00:36:40;;;;;;;20.90;12.10;;;5.70;99.90;;;;;;4978112;28;20491;-83
2022/05/02 00:39:06;;;;;;;26.52;13.18;;;5.60;99.90;;;;;;4970564;28;20042;-81
2022/05/02 00:41:32;;;;;;;26.13;13.82;;;5.60;99.90;;;;;;4973394;28;20026;-81
2022/05/02 00:43:58;;;;;;;21.90;12.20;;;5.60;99.90;;;;;;4976165;28;20035;-82
2022/05/02 00:46:25;;;;;;;29.40;13.27;;;5.60;99.90;;;;;;4972339;28;20082;-80
2022/05/02 00:48:52;;;;;;;25.10;13.70;;;5.50;99.90;;;;;;4967522;28;20061;-79
2022/05/02 00:51:19;;;;;;;30.58;14.32;;;5.60;99.90;;;;;;4985518;28;20452;-81
2022/05/02 00:53:47;;;;;;;25.13;12.68;;;5.60;99.90;;;;;;4983820;28;20111;-81
2022/05/02 00:56:15;;;;;;;25.25;13.07;;;5.60;99.90;;;;;;4989645;28;20502;-80
2022/05/02 00:58:40;;;;;;;27.88;12.95;;;5.60;99.90;;;;;;4967781;28;20475;-80
2022/05/02 01:01:06;;;;;;;28.80;14.35;;;5.60;99.90;;;;;;4966286;28;20125;-79
2022/05/02 01:03:34;;;;;;;25.00;13.05;;;5.50;99.90;;;;;;4968982;28;20073;-80
2022/05/02 01:08:45;;;;;;;21.58;11.50;;;5.40;99.90;;;;;;4969522;28;20399;-80
2022/05/02 01:11:10;;;;;;;25.33;13.05;;;5.30;99.90;;;;;;4987466;28;20031;-79
2022/05/02 01:13:41;;;;;;;25.05;13.27;;;5.30;99.90;;;;;;4971987;28;20131;-80
2022/05/02 01:16:27;;;;;;;21.88;11.57;;;5.20;99.90;;;;;;4972718;28;20447;-77
2022/05/02 01:18:55;;;;;;;27.02;12.43;;;5.20;99.90;;;;;;4970986;28;20045;-76
2022/05/02 01:21:23;;;;;;;23.25;11.52;;;5.20;99.90;;;;;;4972444;28;20167;-77
2022/05/02 01:23:50;;;;;;;24.15;12.27;;;5.20;99.90;;;;;;4987401;28;20070;-77
2022/05/02 01:26:16;;;;;;;33.85;14.38;;;5.10;99.90;;;;;;4971450;28;20122;-76
2022/05/02 01:28:43;;;;;;;24.02;13.00;;;5.00;99.90;;;;;;4972276;28;20038;-77
2022/05/02 01:31:08;;;;;;;28.60;13.13;;;5.00;99.90;;;;;;4972518;28;20050;-78
2022/05/02 01:33:35;;;;;;;23.63;12.00;;;4.90;99.90;;;;;;4988343;28;20085;-77
2022/05/02 01:36:01;;;;;;;24.90;12.55;;;4.80;99.90;;;;;;4974004;28;20547;-76
2022/05/02 01:38:27;;;;;;;25.98;13.68;;;4.90;99.90;;;;;;4974095;28;20563;-76
2022/05/02 01:40:52;;;;;;;23.90;12.98;;;4.70;99.90;;;;;;4974079;28;20111;-76
2022/05/02 01:43:18;;;;;;;25.50;12.85;;;4.70;99.90;;;;;;4974351;28;20396;-77
2022/05/02 01:45:43;;;;;;;25.00;12.85;;;4.70;99.90;;;;;;4973866;28;20113;-77
2022/05/02 01:48:09;;;;;;;23.58;12.57;;;4.60;99.90;;;;;;4974086;28;20077;-76
2022/05/02 01:50:35;;;;;;;28.65;13.50;;;4.60;99.90;;;;;;4974097;28;20452;-76
2022/05/02 01:53:01;;;;;;;23.55;12.98;;;4.60;99.90;;;;;;4973727;28;20477;-76
2022/05/02 01:55:26;;;;;;;26.95;12.55;;;5.00;99.90;;;;;;4972286;28;20030;-76
2022/05/02 01:57:52;;;;;;;24.00;11.98;;;4.50;99.90;;;;;;4973244;28;20151;-76
2022/05/02 02:00:18;;;;;;;23.70;12.10;;;4.40;99.90;;;;;;4973555;28;20492;-76
2022/05/02 02:02:44;;;;;;;26.48;13.88;;;4.40;99.90;;;;;;4973727;28;20038;-76
2022/05/02 02:07:54;;;;;;;27.90;14.00;;;4.30;99.90;;;;;;4973785;28;20411;-76
2022/05/02 02:10:20;;;;;;;29.08;14.20;;;4.50;99.90;;;;;;4988396;28;20030;-76
2022/05/02 02:12:45;;;;;;;33.67;15.00;;;4.30;99.90;;;;;;4973260;28;20034;-76
2022/05/02 02:15:14;;;;;;;30.58;14.32;;;4.50;99.90;;;;;;4988159;28;20035;-76
2022/05/02 02:17:43;;;;;;;28.08;14.05;;;4.40;99.90;;;;;;4973280;28;20031;-76
2022/05/02 02:20:10;;;;;;;30.98;15.25;;;4.40;99.90;;;;;;4971813;28;20761;-76
2022/05/02 02:22:37;;;;;;;30.23;14.95;;;4.20;99.90;;;;;;4973654;28;20536;-76
2022/05/02 02:25:04;;;;;;;27.27;13.52;;;4.20;99.90;;;;;;4972041;28;20031;-76
2022/05/02 02:27:31;;;;;;;29.13;13.65;;;4.20;99.90;;;;;;4972853;28;20037;-76
2022/05/02 02:29:57;;;;;;;31.27;15.23;;;4.20;99.90;;;;;;4971899;28;20026;-77
2022/05/02 02:32:23;;;;;;;38.53;15.57;;;4.20;99.90;;;;;;4971374;28;20061;-76
2022/05/02 02:34:49;;;;;;;31.20;14.55;;;4.20;99.90;;;;;;4973400;28;20548;-76
2022/05/02 02:37:18;;;;;;;32.92;15.02;;;4.20;99.90;;;;;;4973154;28;20214;-76
2022/05/02 02:39:44;;;;;;;32.07;15.87;;;4.20;99.90;;;;;;4973242;28;20027;-76
2022/05/02 02:42:10;;;;;;;33.63;15.65;;;4.20;99.90;;;;;;4973146;28;20015;-76
2022/05/02 02:44:36;;;;;;;41.60;18.65;;;4.30;99.90;;;;;;4971391;28;20035;-76
2022/05/02 02:47:02;;;;;;;33.60;16.42;;;4.30;99.90;;;;;;4972674;28;20027;-76
2022/05/02 02:49:28;;;;;;;32.25;15.52;;;4.30;99.90;;;;;;4972851;28;20117;-76
2022/05/02 02:51:54;;;;;;;36.58;17.65;;;4.30;99.90;;;;;;4972679;28;20092;-76
2022/05/02 02:54:20;;;;;;;31.55;15.00;;;4.30;99.90;;;;;;4972723;28;20034;-76
2022/05/02 02:56:46;;;;;;;34.67;16.55;;;4.30;99.90;;;;;;4972698;28;20273;-76
2022/05/02 02:59:12;;;;;;;36.47;16.65;;;4.20;99.90;;;;;;4971455;28;20361;-76
2022/05/02 03:01:39;;;;;;;33.92;15.88;;;4.10;99.90;;;;;;4972655;28;20085;-76
2022/05/02 03:06:50;;;;;;;35.35;16.85;;;4.10;99.90;;;;;;4972340;28;20085;-76
2022/05/02 03:09:16;;;;;;;38.05;17.00;;;4.10;99.90;;;;;;4972576;28;20411;-76
2022/05/02 03:11:41;;;;;;;33.58;17.13;;;4.00;99.90;;;;;;4972261;28;20023;-76
2022/05/02 03:14:07;;;;;;;35.03;15.55;;;4.00;99.90;;;;;;4972810;28;20018;-76
2022/05/02 03:16:33;;;;;;;32.33;15.90;;;3.90;99.90;;;;;;4972681;28;20026;-76
2022/05/02 03:18:58;;;;;;;31.67;14.95;;;3.80;99.90;;;;;;4971109;28;20122;-77
2022/05/02 03:21:24;;;;;;;35.40;16.83;;;3.70;99.90;;;;;;4987222;28;20038;-76
2022/05/02 03:23:50;;;;;;;34.65;14.50;;;3.70;99.90;;;;;;4986791;28;20034;-76
2022/05/02 03:26:15;;;;;;;37.35;16.80;;;3.60;99.90;;;;;;4972114;28;20105;-76
2022/05/02 03:28:41;;;;;;;34.33;16.15;;;3.70;99.90;;;;;;4972041;28;20027;-76
2022/05/02 03:31:07;;;;;;;33.40;15.55;;;3.60;99.90;;;;;;4972185;28;20428;-76
2022/05/02 03:33:32;;;;;;;29.88;14.35;;;3.50;99.90;;;;;;4971906;28;20426;-76
2022/05/02 03:35:58;;;;;;;34.75;15.70;;;3.40;99.90;;;;;;4972349;28;20495;-76
2022/05/02 03:38:24;;;;;;;31.10;14.68;;;3.40;99.90;;;;;;4972222;28;20277;-76
2022/05/02 03:40:49;;;;;;;31.73;15.85;;;3.30;99.90;;;;;;4970506;28;20085;-76
2022/05/02 03:43:15;;;;;;;34.50;15.43;;;3.40;99.90;;;;;;4971857;28;20031;-76
2022/05/02 03:45:41;;;;;;;36.83;15.85;;;3.40;99.90;;;;;;4972177;28;20031;-76
2022/05/02 03:48:07;;;;;;;33.70;15.02;;;3.40;99.90;;;;;;4972071;28;20026;-76
2022/05/02 03:50:33;;;;;;;33.38;16.48;;;3.30;99.90;;;;;;4971787;28;20423;-76
2022/05/02 03:52:58;;;;;;;31.15;15.25;;;3.30;99.90;;;;;;4987130;28;20030;-76
2022/05/02 03:55:24;;;;;;;32.55;14.52;;;3.30;99.90;;;;;;4986919;28;20081;-76
2022/05/02 03:57:50;;;;;;;38.75;16.48;;;3.20;99.90;;;;;;4970442;28;20030;-76
2022/05/02 04:00:16;;;;;;;30.10;15.88;;;3.20;99.90;;;;;;4973069;28;20476;-76
2022/05/02 04:02:42;;;;;;;32.33;15.32;;;3.30;99.90;;;;;;4988152;28;20565;-76
2022/05/02 04:05:08;;;;;;;37.00;17.25;;;3.40;99.90;;;;;;4988010;28;20030;-77
2022/05/02 04:07:34;;;;;;;32.33;17.00;;;3.30;99.90;;;;;;4972370;28;20042;-76
2022/05/02 04:10:00;;;;;;;33.35;15.50;;;3.30;99.90;;;;;;4970976;28;20057;-76
2022/05/02 04:12:26;;;;;;;34.92;15.80;;;3.30;99.90;;;;;;4972209;28;20141;-76
2022/05/02 04:14:52;;;;;;;37.40;16.25;;;3.30;99.90;;;;;;4971515;28;20027;-76
2022/05/02 04:17:18;;;;;;;35.78;16.13;;;3.30;99.90;;;;;;4987496;28;20034;-76
2022/05/02 04:19:44;;;;;;;44.65;16.45;;;3.40;99.90;;;;;;4971152;28;20122;-76
2022/05/02 04:22:09;;;;;;;41.55;18.55;;;3.40;99.90;;;;;;4971054;28;20089;-76
2022/05/02 04:24:35;;;;;;;44.80;18.92;;;3.40;99.90;;;;;;4972448;28;20027;-76
2022/05/02 04:27:01;;;;;;;44.35;20.17;;;3.60;99.90;;;;;;4970693;28;20029;-76
2022/05/02 04:29:26;;;;;;;36.00;15.40;;;3.70;99.90;;;;;;4986876;28;20476;-76
2022/05/02 04:31:52;;;;;;;38.55;17.80;;;3.60;99.90;;;;;;4971534;28;20543;-76
2022/05/02 04:34:17;;;;;;;37.38;16.10;;;3.60;99.90;;;;;;4970180;28;20542;-76
2022/05/02 04:36:43;;;;;;;38.85;16.80;;;3.60;99.90;;;;;;4971594;28;20403;-76
2022/05/02 04:39:09;;;;;;;37.35;17.95;;;3.60;99.90;;;;;;4970395;28;20419;-77
2022/05/02 04:41:34;;;;;;;32.92;15.73;;;3.60;99.90;;;;;;4971423;28;20491;-76
2022/05/02 04:44:00;;;;;;;31.70;15.05;;;3.60;99.90;;;;;;4973274;28;20027;-76
2022/05/02 04:46:26;;;;;;;30.30;15.30;;;3.60;99.90;;;;;;4990498;28;20025;-76
2022/05/02 04:48:53;;;;;;;32.20;15.20;;;3.60;99.90;;;;;;4975657;28;20023;-76
2022/05/02 04:51:18;;;;;;;37.85;16.52;;;3.70;99.90;;;;;;4976204;28;20027;-76
2022/05/02 04:53:44;;;;;;;36.65;15.75;;;3.70;99.90;;;;;;4976476;28;20085;-76
2022/05/02 04:56:10;;;;;;;34.35;15.25;;;3.80;99.90;;;;;;4992773;28;20038;-76
2022/05/02 04:58:36;;;;;;;34.97;16.88;;;3.80;99.90;;;;;;4993415;28;20403;-76
2022/05/02 05:01:06;;;;;;;39.50;17.73;;;3.90;99.90;;;;;;4978718;28;20029;-76
2022/05/02 05:03:31;;;;;;;38.05;16.42;;;3.90;99.90;;;;;;4978090;28;20030;-78
2022/05/02 05:05:57;;;;;;;41.17;19.08;;;3.90;99.90;;;;;;4973548;28;20019;-76
2022/05/02 05:08:22;;;;;;;45.25;20.77;;;4.10;99.90;;;;;;4974958;28;20105;-76
2022/05/02 05:11:00;;;;;;;39.97;17.33;;;4.30;99.90;;;;;;4974848;28;20051;-76
2022/05/02 05:13:35;;;;;;;40.03;17.83;;;4.40;99.90;;;;;;4974493;28;20027;-76
2022/05/02 05:16:41;;;;;;;42.50;18.65;;;4.60;99.90;;;;;;4974376;28;20122;-76
2022/05/02 05:19:29;;;;;;;37.42;18.45;;;4.80;99.90;;;;;;4968409;28;20528;-76
2022/05/02 05:22:22;;;;;;;35.83;15.77;;;4.80;99.90;;;;;;4973237;28;20037;-76
2022/05/02 05:25:05;;;;;;;37.13;16.65;;;4.90;99.90;;;;;;4975126;28;20027;-76
2022/05/02 05:27:47;;;;;;;44.10;18.45;;;5.00;99.90;;;;;;4993928;28;20283;-76
2022/05/02 05:30:16;;;;;;;45.95;20.00;;;5.20;99.90;;;;;;4983005;28;20046;-77
2022/05/02 05:32:44;;;;;;;47.25;17.85;;;5.30;99.90;;;;;;4978247;28;20054;-75
2022/05/02 05:35:14;;;;;;;42.47;19.88;;;5.50;99.90;;;;;;4969399;28;20073;-77
2022/05/02 05:38:00;;;;;;;42.38;19.20;;;5.70;99.90;;;;;;4973445;28;20026;-77
2022/05/02 05:40:42;;;;;;;37.75;17.13;;;5.80;99.90;;;;;;4974343;28;20031;-77
2022/05/02 05:43:41;;;;;;;40.90;19.33;;;6.00;99.90;;;;;;4971530;28;20031;-77
2022/05/02 05:46:23;;;;;;;45.83;20.60;;;6.30;99.90;;;;;;4971190;28;20023;-76
2022/05/02 05:48:57;;;;;;;41.35;19.25;;;6.50;99.90;;;;;;4987188;28;20033;-76
2022/05/02 05:51:40;;;;;;;43.17;18.65;;;6.60;99.90;;;;;;4986894;28;20444;-76
2022/05/02 05:54:35;;;;;;;50.90;23.35;;;6.80;99.90;;;;;;4972132;28;20020;-76
2022/05/02 05:57:19;;;;;;;43.38;19.63;;;6.90;99.90;;;;;;4971398;28;20023;-76
2022/05/02 06:00:03;;;;;;;48.30;21.70;;;7.10;99.90;;;;;;4986881;28;20118;-76
2022/05/02 06:02:48;;;;;;;44.00;20.75;;;7.30;99.90;;;;;;4970686;28;20062;-76
2022/05/02 06:05:14;;;;;;;45.85;21.92;;;7.50;99.90;;;;;;4971878;28;20594;-76
2022/05/02 06:07:40;;;;;;;55.20;22.63;;;7.70;99.90;;;;;;4971718;28;20550;-77
2022/05/02 06:10:09;;;;;;;44.45;21.88;;;7.80;99.90;;;;;;4971302;28;20031;-76
2022/05/02 06:12:37;;;;;;;39.85;19.77;;;8.00;99.90;;;;;;4973422;28;20026;-76
2022/05/02 06:20:39;;;;;;;43.20;21.30;;;8.70;99.90;;;;;;4973956;28;20041;-76
2022/05/02 06:23:09;;;;;;;40.72;18.63;;;8.90;99.90;;;;;;4972417;28;20113;-76
2022/05/02 06:25:40;;;;;;;36.67;19.38;;;9.30;99.90;;;;;;4985694;28;20019;-79
2022/05/02 06:28:07;;;;;;;37.38;18.65;;;9.40;99.90;;;;;;4993650;28;20026;-80
2022/05/02 06:30:36;;;;;;;37.35;18.58;;;9.80;99.90;;;;;;4987853;28;20054;-81
2022/05/02 06:33:12;;;;;;;33.53;18.50;;;10.00;99.90;;;;;;4983107;28;20130;-81
2022/05/02 06:36:05;;;;;;;31.23;14.95;;;10.40;99.90;;;;;;4996456;28;20019;-82
2022/05/02 06:38:53;;;;;;;27.80;15.75;;;11.10;99.90;;;;;;4979673;28;20126;-84
2022/05/02 06:41:33;;;;;;;28.25;14.98;;;11.50;99.90;;;;;;4971731;28;20027;-80
2022/05/02 06:44:22;;;;;;;26.17;14.95;;;11.50;99.90;;;;;;4956370;29;20027;-82
2022/05/02 06:47:04;;;;;;;31.95;16.48;;;11.50;99.90;;;;;;4944339;28;20039;-79
2022/05/02 06:49:33;;;;;;;25.98;15.50;;;11.70;99.90;;;;;;4955501;28;20039;-81
2022/05/02 06:52:02;;;;;;;34.80;16.25;;;12.10;99.90;;;;;;4955021;28;20050;-81
2022/05/02 06:54:46;;;;;;;;;;;12.40;99.90;;;;;;4956795;28;20023;-86
2022/05/02 06:57:24;;;;;;;24.52;13.95;;;12.70;99.90;;;;;;4949867;29;19953;-85
2022/05/02 07:00:00;;;;;;;24.05;15.02;;;13.40;99.90;;;;;;4950775;29;20039;-83
2022/05/02 07:02:59;;;;;;;24.17;14.18;;;14.20;99.90;;;;;;4949398;29;20038;-80
2022/05/02 07:05:41;;;;;;;23.83;14.80;;;14.80;99.90;;;;;;4938358;29;20099;-92
2022/05/02 07:08:07;;;;;;;24.00;14.55;;;15.30;99.90;;;;;;4949816;28;20208;-85
2022/05/02 07:10:33;;;;;;;19.58;13.20;;;15.90;99.90;;;;;;4951057;28;20101;-89
2022/05/02 07:13:25;;;;;;;17.52;11.88;;;16.10;99.90;;;;;;4950596;29;20430;-89
2022/05/02 07:16:30;;;;;;;16.80;11.52;;;16.80;99.90;;;;;;4949603;29;20023;-86
2022/05/02 07:19:30;;;;;;;18.88;11.55;;;16.50;99.90;;;;;;4856909;29;20146;-85
2022/05/02 07:22:09;;;;;;;16.35;11.40;;;16.00;99.90;;;;;;4872424;29;20029;-88
2022/05/02 07:25:09;;;;;;;16.40;10.98;;;15.60;99.90;;;;;;4934527;28;20117;-91
2022/05/02 07:27:54;;;;;;;21.25;12.40;;;14.60;99.90;;;;;;4996327;28;20035;-82
2022/05/02 07:30:21;;;;;;;17.92;11.60;;;13.90;99.90;;;;;;4976603;28;20088;-84
2022/05/02 07:32:47;;;;;;;16.25;10.90;;;14.20;99.90;;;;;;4950431;29;20062;-91
2022/05/02 07:35:16;;;;;;;17.45;11.85;;;14.60;99.90;;;;;;4951280;29;20027;-91
2022/05/02 07:37:43;;;;;;;15.00;9.80;;;14.90;99.90;;;;;;4950606;28;20114;-88
2022/05/02 07:40:12;;;;;;;19.13;11.88;;;15.00;99.90;;;;;;4950412;29;20039;-92
2022/05/02 07:42:39;;;;;;;15.60;10.45;;;14.80;99.90;;;;;;4950005;29;20034;-91
2022/05/02 07:45:10;;;;;;;17.88;11.07;;;15.00;99.90;;;;;;4950877;29;20031;-94
2022/05/02 07:47:36;;;;;;;19.65;11.35;;;15.10;99.90;;;;;;4959103;29;20027;-83
2022/05/02 07:50:05;;;;;;;18.48;11.95;;;15.20;99.90;;;;;;4980031;28;20102;-82
2022/05/02 07:52:41;;;;;;;20.20;12.38;;;14.70;99.90;;;;;;4981561;28;20090;-81
2022/05/02 07:55:09;;;;;;;19.17;11.50;;;14.40;99.90;;;;;;4962061;28;20043;-91
2022/05/02 07:57:38;;;;;;;17.27;10.20;;;15.40;99.90;;;;;;4950083;28;20416;-89
2022/05/02 08:00:07;;;;;;;18.55;10.32;;;15.80;99.90;;;;;;4949138;29;20046;-91
2022/05/02 08:02:34;;;;;;;14.07;9.73;;;16.20;99.90;;;;;;4948784;29;20108;-82
2022/05/02 08:04:59;;;;;;;16.80;10.32;;;16.50;99.90;;;;;;4950581;28;20452;-87
2022/05/02 08:07:33;;;;;;;12.38;8.80;;;16.90;99.90;;;;;;4950043;29;20054;-87
2022/05/02 08:10:14;;;;;;;13.23;9.27;;;17.50;99.90;;;;;;4948781;29;20035;-89
2022/05/02 08:12:50;;;;;;;14.98;9.50;;;16.90;99.90;;;;;;4949429;28;20041;-88
2022/05/02 08:15:40;;;;;;;12.90;8.70;;;17.30;99.90;;;;;;4964514;28;20139;-85
2022/05/02 08:18:44;;;;;;;10.38;7.85;;;17.20;99.90;;;;;;4978794;28;20051;-79
2022/05/02 08:21:28;;;;;;;14.77;8.35;;;16.70;99.90;;;;;;4994586;28;20011;-82
2022/05/02 08:27:27;;;;;;;14.82;8.98;;;15.60;99.90;;;;;;4979523;28;20030;-79
2022/05/02 08:30:06;;;;;;;;;;;15.50;99.90;;;;;;4962337;28;20023;-81
2022/05/02 08:32:41;;;;;;;13.75;8.98;;;15.90;99.90;;;;;;4954346;28;19977;-82
2022/05/02 08:35:11;;;;;;;16.48;8.88;;;15.90;99.90;;;;;;4985440;28;20035;-81
2022/05/02 08:38:11;;;;;;;13.90;9.40;;;16.10;99.90;;;;;;4977221;28;20011;-80
2022/05/02 08:41:02;;;;;;;;;;;15.70;99.90;;;;;;4995100;28;20095;-80
2022/05/02 08:43:53;;;;;;;12.68;9.10;;;16.10;99.90;;;;;;4978378;28;19953;-80
2022/05/02 08:46:46;;;;;;;13.07;8.68;;;15.70;99.90;;;;;;4994910;28;20074;-82
2022/05/02 08:49:37;;;;;;;16.08;9.40;;;15.40;99.90;;;;;;4994859;28;20024;-80
2022/05/02 08:52:23;;;;;;;14.55;9.45;;;15.20;99.90;;;;;;4994581;28;20043;-81
2022/05/02 08:54:49;;;;;;;13.60;9.43;;;15.60;99.90;;;;;;4978600;28;20019;-81
2022/05/02 08:57:36;;;;;;;18.95;11.63;;;15.40;99.90;;;;;;4994774;28;20032;-82
2022/05/02 09:00:07;;;;;;;12.73;8.20;;;15.80;99.90;;;;;;4978855;28;20023;-81
2022/05/02 09:02:51;;;;;;;17.98;8.85;;;16.20;99.90;;;;;;4959058;28;20063;-87
2022/05/02 09:05:44;;;;;;;13.13;8.25;;;16.80;99.90;;;;;;4964921;28;20117;-89
2022/05/02 09:08:57;;;;;;;10.88;7.93;;;17.00;99.90;;;;;;4964754;28;20030;-90
2022/05/02 09:11:54;;;;;;;12.30;7.90;;;16.90;99.90;;;;;;4952872;29;20027;-87
2022/05/02 09:14:48;;;;;;;10.75;7.13;;;17.20;99.90;;;;;;4900675;29;20047;-86
2022/05/02 09:17:35;;;;;;;10.73;7.70;;;16.60;98.20;;;;;;4995218;28;20011;-81
2022/05/02 09:20:35;;;;;;;10.60;8.40;;;16.30;99.90;;;;;;4979847;28;20035;-80
2022/05/02 09:23:34;;;;;;;10.50;7.93;;;16.20;99.90;;;;;;4960397;28;20055;-86
2022/05/02 09:26:06;;;;;;;13.30;7.82;;;16.70;99.90;;;;;;4975070;28;20012;-82
2022/05/02 09:28:47;;;;;;;11.52;8.57;;;16.50;99.90;;;;;;4979701;28;20031;-82
2022/05/02 09:31:40;;;;;;;12.93;8.18;;;16.50;99.90;;;;;;4996973;28;20034;-81
2022/05/02 09:34:18;;;;;;;13.23;8.07;;;16.40;99.90;;;;;;4982362;28;20050;-81
2022/05/02 09:37:01;;;;;;;11.77;7.97;;;15.90;99.90;;;;;;4982421;28;20039;-81
2022/05/02 09:39:47;;;;;;;11.38;7.90;;;15.70;99.90;;;;;;4981515;28;20055;-82
2022/05/02 09:42:40;;;;;;;10.65;7.82;;;16.10;99.90;;;;;;4981099;28;20007;-82
2022/05/02 09:51:39;;;;;;;15.45;8.43;;;15.70;99.90;;;;;;4982067;28;20025;-82
2022/05/02 09:56:37;;;;;;;15.18;7.88;;;15.80;99.90;;;;;;4994458;28;20035;-81
2022/05/02 09:57:21;;;;;;;11.48;7.40;;;16.00;99.90;;;;;;4981474;28;20046;-83
2022/05/02 10:01:06;;;;;;;11.00;7.35;;;16.00;99.90;;;;;;4981499;28;20116;-81
2022/05/02 10:02:44;;;;;;;11.50;8.65;;;16.10;99.90;;;;;;4981160;28;20011;-81
2022/05/02 10:05:14;;;;;;;13.85;8.73;;;16.30;99.90;;;;;;4977885;29;20023;-82
2022/05/02 10:07:58;;;;;;;14.35;8.68;;;16.30;99.90;;;;;;4974250;28;20099;-81
2022/05/02 10:10:39;;;;;;;11.60;8.70;;;16.10;99.90;;;;;;4977783;28;20031;-82
2022/05/02 10:13:07;;;;;;;11.50;8.27;;;15.90;99.90;;;;;;4981509;28;20067;-80
2022/05/02 10:15:48;;;;;;;12.02;8.50;;;16.30;99.90;;;;;;4997519;28;20011;-81
2022/05/02 10:18:24;;;;;;;11.48;7.45;;;16.60;99.90;;;;;;4997194;28;20444;-81
2022/05/02 10:21:07;;;;;;;10.98;7.25;;;16.90;99.90;;;;;;4981405;29;20011;-82
2022/05/02 10:24:02;;;;;;;10.65;6.57;;;16.80;97.00;;;;;;4997076;28;20015;-83
2022/05/02 10:26:55;;;;;;;10.32;6.05;;;16.90;93.30;;;;;;4980965;28;20031;-82
2022/05/02 10:29:43;;;;;;;10.15;6.45;;;17.10;99.90;;;;;;4980628;28;20079;-81
2022/05/02 10:34:38;;;;;;;11.02;7.30;;;;;;;;;;5160361;23;20063;-80
2022/05/02 10:37:08;;;;;;;12.30;7.07;;;17.20;96.50;;;;;;4981007;28;20007;-80
2022/05/02 10:39:47;;;;;;;10.45;6.35;;;17.20;86.20;;;;;;4980681;28;20039;-81
2022/05/02 10:42:25;;;;;;;15.32;6.72;;;17.20;95.30;;;;;;4995211;23;20026;-81
2022/05/02 10:45:01;;;;;;;9.55;7.32;;;17.20;93.90;;;;;;4999732;28;20039;-81
2022/05/02 10:47:38;;;;;;;10.57;7.10;;;17.60;86.40;;;;;;4993493;28;20027;-90
2022/05/02 10:50:31;;;;;;;7.82;6.40;;;17.70;91.60;;;;;;4973342;28;20022;-88
2022/05/02 10:53:18;;;;;;;12.23;6.45;;;18.20;91.00;;;;;;4987938;28;20019;-83
2022/05/02 10:56:05;;;;;;;10.73;6.20;;;18.10;95.70;;;;;;5000316;28;20014;-79
2022/05/02 10:58:34;;;;;;;9.73;6.95;;;18.10;80.60;;;;;;4999239;28;20031;-81
2022/05/02 11:01:06;;;;;;;9.23;6.85;;;18.20;79.80;;;;;;4996658;28;20007;-83
2022/05/02 11:04:17;;;;;;;7.95;6.05;;;18.30;75.30;;;;;;4970187;28;20031;-85
2022/05/02 11:07:08;;;;;;;6.63;5.47;;;18.60;83.10;;;;;;4970389;28;20039;-84
2022/05/02 11:09:48;;;;;;;8.43;5.40;;;19.40;70.70;;;;;;4968800;28;20756;-88
2022/05/02 11:12:22;;;;;;;6.20;5.25;;;19.80;64.60;;;;;;4966921;28;20039;-88
2022/05/02 11:14:54;;;;;;;7.00;5.07;;;20.10;66.50;;;;;;4970189;28;20054;-90
2022/05/02 11:17:39;;;;;;;6.50;5.63;;;19.60;66.90;;;;;;4981940;28;20018;-79
2022/05/02 11:20:41;;;;;;;7.47;5.25;;;18.70;67.00;;;;;;4992827;28;20042;-87
2022/05/02 11:23:28;;;;;;;8.13;6.53;;;18.80;67.00;;;;;;5006324;28;20020;-79
2022/05/02 11:26:33;;;;;;;9.82;7.03;;;18.70;74.20;;;;;;5019573;28;20014;-79
2022/05/02 11:29:05;;;;;;;10.48;6.00;;;18.70;69.80;;;;;;4997201;28;20026;-90
2022/05/02 11:31:38;;;;;;;11.00;7.10;;;19.10;89.40;;;;;;4986012;28;20561;-85
2022/05/02 11:34:28;;;;;;;8.43;6.35;;;19.30;70.90;;;;;;4986194;28;20023;-88
2022/05/02 11:36:57;;;;;;;7.35;5.30;;;19.80;67.10;;;;;;4986432;28;20272;-89
2022/05/02 11:39:40;;;;;;;6.25;5.20;;;19.70;66.50;;;;;;4986191;28;20148;-92
2022/05/02 11:42:18;;;;;;;7.53;5.28;;;20.40;61.50;;;;;;4985962;28;20042;-90
2022/05/02 11:44:51;;;;;;;6.50;5.68;;;20.80;59.10;;;;;;4988454;28;20022;-86
2022/05/02 11:47:35;;;;;;;9.68;5.50;;;20.60;58.90;;;;;;4989071;28;20109;-88
2022/05/02 11:50:05;;;;;;;7.72;4.95;;;20.70;59.10;;;;;;4988511;28;20029;-90
2022/05/02 11:52:38;;;;;;;9.27;4.18;;;20.30;58.00;;;;;;4988580;28;20038;-86
2022/05/02 11:55:08;;;;;;;6.82;4.82;;;19.80;61.10;;;;;;4991721;28;20022;-91
2022/05/02 11:57:50;;;;;;;4.82;3.60;;;19.80;60.30;;;;;;5000472;28;20026;-91
2022/05/02 12:00:16;;;;;;;7.47;4.93;;;20.20;57.90;;;;;;4991793;28;20038;-91
2022/05/02 12:03:02;;;;;;;3.83;3.42;;;20.60;57.00;;;;;;4988053;28;20114;-89
2022/05/02 12:05:42;;;;;;;5.40;4.78;;;21.70;56.00;;;;;;4987374;28;20042;-90
2022/05/02 12:08:22;;;;;;;5.63;4.75;;;21.60;55.40;;;;;;4989031;28;20035;-89
2022/05/02 12:10:47;;;;;;;6.93;4.00;;;21.40;53.90;;;;;;4988391;28;20026;-87
2022/05/02 12:13:19;;;;;;;4.78;4.03;;;21.70;54.20;;;;;;4987622;28;20031;-89
2022/05/02 12:16:15;;;;;;;4.40;4.00;;;22.30;53.10;;;;;;4991075;28;20322;-89
2022/05/02 12:18:50;;;;;;;4.50;4.03;;;22.30;52.90;;;;;;4990265;28;20490;-85
2022/05/02 12:21:21;;;;;;;4.65;3.60;;;21.80;54.10;;;;;;4989040;28;20519;-86
2022/05/02 12:23:48;;;;;;;6.13;4.00;;;22.00;55.00;;;;;;4986954;28;20034;-86
2022/05/02 12:26:22;;;;;;;5.95;3.97;;;21.30;54.10;;;;;;4986442;28;20027;-86
2022/05/02 12:28:51;;;;;;;5.85;4.32;;;21.00;54.90;;;;;;4985315;28;20027;-87
2022/05/02 12:31:29;;;;;;;7.47;4.10;;;21.10;54.30;;;;;;4989295;28;20037;-93
2022/05/02 12:33:57;;;;;;;4.00;3.30;;;21.20;54.50;;;;;;4989676;28;20026;-89
2022/05/02 12:36:28;;;;;;;3.47;3.17;;;20.80;55.20;;;;;;4988359;28;20028;-91
2022/05/02 12:39:15;;;;;;;5.63;3.33;;;21.40;57.20;;;;;;4995933;28;20090;-81
2022/05/02 12:41:49;;;;;;;3.95;3.60;;;21.10;55.40;;;;;;4996492;28;20038;-94
2022/05/02 12:44:17;;;;;;;4.82;3.28;;;21.00;53.60;;;;;;4994574;28;20061;-88
2022/05/02 12:46:48;;;;;;;3.20;2.92;;;21.00;53.70;;;;;;4988833;28;20023;-84
2022/05/02 12:49:52;;;;;;;3.47;3.17;;;21.00;55.70;;;;;;4998518;28;20049;-89
2022/05/02 12:52:29;;;;;;;3.13;2.72;;;21.70;51.00;;;;;;5016663;28;20053;-82
2022/05/02 12:55:16;;;;;;;3.47;2.50;;;21.80;51.20;;;;;;4993060;28;20034;-92
2022/05/02 13:00:40;;;;;;;2.50;2.38;;;21.60;50.30;;;;;;4992624;28;20470;-87
2022/05/02 13:03:17;;;;;;;5.45;2.25;;;20.90;51.00;;;;;;4998313;28;20037;-93
2022/05/02 13:05:46;;;;;;;2.17;1.98;;;21.30;52.40;;;;;;4987126;28;20039;-89
2022/05/02 13:08:14;;;;;;;3.95;2.88;;;21.60;49.60;;;;;;4972140;28;20061;-88
2022/05/02 13:10:42;;;;;;;2.60;2.20;;;22.20;50.40;;;;;;4971811;28;20149;-87
2022/05/02 13:13:09;;;;;;;3.03;2.30;;;23.10;48.90;;;;;;4971954;28;20038;-89
2022/05/02 13:15:44;;;;;;;4.80;2.95;;;22.90;50.20;;;;;;4973093;28;20023;-86
2022/05/02 13:18:19;;;;;;;14.70;4.60;;;22.50;51.70;;;;;;4971620;28;20023;-86
2022/05/02 13:21:01;;;;;;;5.60;3.38;;;23.30;50.60;;;;;;4985071;28;20031;-88
2022/05/02 13:23:57;;;;;;;3.65;2.92;;;23.10;50.80;;;;;;4992071;28;20089;-86
2022/05/02 13:26:44;;;;;;;3.80;3.17;;;23.30;51.40;;;;;;4969542;28;20035;-91
2022/05/02 13:29:17;;;;;;;3.83;3.33;;;23.60;52.90;;;;;;5001390;28;20056;-91
2022/05/02 13:32:02;;;;;;;5.32;2.88;;;23.40;51.00;;;;;;4999007;28;20110;-90
2022/05/02 13:34:50;;;;;;;3.42;2.90;;;23.20;49.80;;;;;;4997369;28;20030;-94
2022/05/02 13:37:23;;;;;;;5.40;3.53;;;22.80;50.10;;;;;;4992076;28;20049;-88
2022/05/02 13:39:57;;;;;;;4.88;3.45;;;22.00;51.10;;;;;;4990541;28;20131;-89
2022/05/02 13:42:49;;;;;;;5.18;2.92;;;22.20;52.70;;;;;;4991034;28;20057;-87